createdAt,value
2022-08-16T00:02:31.828Z,100.00
2022-08-16T00:05:01.570Z,100.00
2022-08-16T00:07:31.451Z,100.00
2022-08-16T00:10:01.656Z,100.00
2022-08-16T00:12:30.789Z,100.00
2022-08-16T00:15:02.377Z,100.00
2022-08-16T00:17:56.587Z,100.00
2022-08-16T00:20:24.132Z,100.00
2022-08-16T00:22:58.186Z,100.00
2022-08-16T00:26:33.182Z,100.00
2022-08-16T00:28:20.301Z,100.00
2022-08-16T00:30:50.248Z,100.00
2022-08-16T00:33:18.774Z,100.00
2022-08-16T00:35:48.624Z,100.00
2022-08-16T00:38:41.459Z,100.00
2022-08-16T00:41:11.237Z,100.00
2022-08-16T00:43:42.785Z,100.00
2022-08-16T00:46:33.031Z,100.00
2022-08-16T00:49:18.710Z,100.00
2022-08-16T00:51:54.817Z,100.00
2022-08-16T00:54:29.103Z,100.00
2022-08-16T00:57:00.129Z,100.00
2022-08-16T00:59:34.386Z,100.00
2022-08-16T01:02:30.829Z,100.00
2022-08-16T01:05:09.334Z,100.00
2022-08-16T01:07:50.760Z,100.00
2022-08-16T01:10:32.248Z,100.00
2022-08-16T01:13:05.775Z,100.00
2022-08-16T01:15:43.378Z,100.00
2022-08-16T01:18:39.169Z,100.00
2022-08-16T01:21:33.598Z,100.00
2022-08-16T01:24:52.573Z,100.00
2022-08-16T01:27:15.004Z,100.00
2022-08-16T01:29:58.227Z,100.00
2022-08-16T01:32:33.526Z,100.00
2022-08-16T01:35:03.806Z,100.00
2022-08-16T01:37:42.434Z,100.00
2022-08-16T01:40:15.648Z,100.00
2022-08-16T01:42:49.667Z,100.00
2022-08-16T01:45:22.198Z,100.00
2022-08-16T01:47:53.179Z,100.00
2022-08-16T01:50:42.305Z,100.00
2022-08-16T01:53:13.883Z,100.00
2022-08-16T01:55:53.805Z,100.00
2022-08-16T01:58:27.155Z,100.00
2022-08-16T02:00:55.085Z,100.00
2022-08-16T02:03:24.405Z,100.00
2022-08-16T02:05:58.538Z,100.00
2022-08-16T02:08:33.344Z,100.00
2022-08-16T02:11:10.493Z,100.00
2022-08-16T02:13:41.647Z,100.00
2022-08-16T02:16:18.175Z,100.00
2022-08-16T02:18:47.604Z,100.00
2022-08-16T02:21:31.299Z,100.00
2022-08-16T02:23:59.655Z,100.00
2022-08-16T02:26:34.446Z,100.00
2022-08-16T02:29:02.797Z,100.00
2022-08-16T02:31:32.794Z,100.00
2022-08-16T02:34:33.059Z,100.00
2022-08-16T02:37:05.070Z,100.00
2022-08-16T02:39:36.356Z,100.00
2022-08-16T02:42:06.285Z,100.00
2022-08-16T02:44:34.137Z,100.00
2022-08-16T02:47:05.704Z,100.00
2022-08-16T02:49:58.888Z,100.00
2022-08-16T02:52:24.809Z,100.00
2022-08-16T02:54:57.558Z,100.00
2022-08-16T02:57:27.328Z,100.00
2022-08-16T02:59:56.249Z,100.00
2022-08-16T03:02:32.163Z,100.00
2022-08-16T03:05:00.597Z,100.00
2022-08-16T03:07:37.238Z,100.00
2022-08-16T03:10:09.050Z,100.00
2022-08-16T03:12:55.409Z,100.00
2022-08-16T03:15:27.632Z,100.00
2022-08-16T03:17:55.689Z,100.00
2022-08-16T03:20:31.963Z,100.00
2022-08-16T03:23:02.680Z,100.00
2022-08-16T03:25:41.094Z,100.00
2022-08-16T03:28:17.861Z,100.00
2022-08-16T03:30:46.047Z,100.00
2022-08-16T03:33:15.838Z,100.00
2022-08-16T03:35:47.854Z,100.00
2022-08-16T03:38:33.948Z,100.00
2022-08-16T03:41:14.462Z,100.00
2022-08-16T03:43:57.115Z,100.00
2022-08-16T03:46:48.192Z,100.00
2022-08-16T03:49:18.035Z,100.00
2022-08-16T03:51:47.889Z,100.00
2022-08-16T03:54:22.175Z,100.00
2022-08-16T03:56:57.053Z,100.00
2022-08-16T03:59:30.408Z,100.00
2022-08-16T04:02:01.266Z,100.00
2022-08-16T04:04:33.978Z,100.00
2022-08-16T04:07:02.774Z,100.00
2022-08-16T04:09:35.421Z,100.00
2022-08-16T04:12:11.028Z,100.00
2022-08-16T04:14:58.347Z,100.00
2022-08-16T04:17:30.285Z,100.00
2022-08-16T04:19:59.794Z,100.00
2022-08-16T04:22:28.142Z,100.00
2022-08-16T04:25:00.474Z,100.00
2022-08-16T04:27:31.715Z,100.00
2022-08-16T04:30:03.797Z,100.00
2022-08-16T04:32:31.841Z,100.00
2022-08-16T04:35:03.462Z,100.00
2022-08-16T04:37:42.410Z,100.00
2022-08-16T04:40:21.504Z,100.00
2022-08-16T04:42:50.911Z,100.00
2022-08-16T04:45:35.563Z,100.00
2022-08-16T04:48:07.488Z,100.00
2022-08-16T04:50:35.682Z,100.00
2022-08-16T04:53:04.182Z,100.00
2022-08-16T04:55:37.705Z,100.00
2022-08-16T04:58:44.825Z,100.00
2022-08-16T05:01:01.397Z,100.00
2022-08-16T05:03:32.352Z,100.00
2022-08-16T05:06:05.239Z,100.00
2022-08-16T05:08:35.340Z,100.00
2022-08-16T05:11:08.255Z,100.00
2022-08-16T05:13:42.972Z,100.00
2022-08-16T05:16:16.482Z,100.00
2022-08-16T05:18:50.315Z,100.00
2022-08-16T05:21:20.633Z,100.00
2022-08-16T05:23:51.591Z,100.00
2022-08-16T05:26:28.123Z,100.00
2022-08-16T05:28:56.885Z,100.00
2022-08-16T05:34:03.301Z,100.00
2022-08-16T05:36:34.435Z,100.00
2022-08-16T05:39:10.676Z,100.00
2022-08-16T05:41:44.994Z,100.00
2022-08-16T05:44:23.598Z,100.00
2022-08-16T05:47:00.331Z,100.00
2022-08-16T05:49:38.587Z,100.00
2022-08-16T05:52:13.611Z,100.00
2022-08-16T05:54:58.424Z,100.00
2022-08-16T05:57:34.550Z,100.00
2022-08-16T06:00:09.285Z,100.00
2022-08-16T06:02:41.712Z,98.13
2022-08-16T06:05:11.158Z,96.45
2022-08-16T06:07:44.502Z,96.17
2022-08-16T06:10:33.082Z,95.03
2022-08-16T06:13:01.362Z,93.22
2022-08-16T06:15:31.186Z,92.21
2022-08-16T06:18:00.592Z,90.04
2022-08-16T06:20:35.662Z,88.72
2022-08-16T06:23:16.734Z,87.88
2022-08-16T06:25:52.966Z,87.89
2022-08-16T06:28:35.992Z,86.70
2022-08-16T06:31:06.810Z,87.48
2022-08-16T06:33:44.756Z,87.62
2022-08-16T06:36:14.850Z,86.37
2022-08-16T06:38:56.210Z,86.27
2022-08-16T06:41:27.858Z,86.31
2022-08-16T06:43:56.502Z,87.57
2022-08-16T06:46:31.999Z,86.23
2022-08-16T06:49:05.175Z,86.33
2022-08-16T06:51:48.403Z,84.63
2022-08-16T06:54:17.466Z,83.43
2022-08-16T06:56:47.980Z,82.70
2022-08-16T06:59:25.852Z,81.61
2022-08-16T07:01:58.038Z,82.45
2022-08-16T07:04:32.339Z,80.09
2022-08-16T07:07:01.865Z,80.48
2022-08-16T07:09:33.637Z,78.34
2022-08-16T07:12:05.547Z,78.40
2022-08-16T07:14:38.019Z,78.31
2022-08-16T07:17:08.419Z,76.74
2022-08-16T07:20:02.890Z,76.17
2022-08-16T07:22:37.083Z,75.10
2022-08-16T07:25:20.130Z,75.82
2022-08-16T07:27:50.740Z,75.73
2022-08-16T07:30:39.292Z,76.31
2022-08-16T07:33:10.988Z,76.75
2022-08-16T07:35:49.417Z,74.20
2022-08-16T07:38:20.235Z,73.35
2022-08-16T07:41:10.302Z,72.21
2022-08-16T07:43:40.385Z,72.95
2022-08-16T07:46:37.862Z,71.95
2022-08-16T07:49:02.497Z,70.73
2022-08-16T07:51:35.555Z,70.88
2022-08-16T07:54:11.440Z,72.24
2022-08-16T07:56:49.030Z,71.83
2022-08-16T07:59:19.450Z,71.27
2022-08-16T08:01:47.187Z,71.27
2022-08-16T08:04:16.938Z,70.62
2022-08-16T08:06:46.594Z,69.95
2022-08-16T08:09:19.385Z,69.99
2022-08-16T08:12:00.704Z,67.80
2022-08-16T08:14:30.353Z,65.35
2022-08-16T08:17:01.628Z,67.13
2022-08-16T08:19:29.557Z,65.77
2022-08-16T08:22:05.996Z,67.60
2022-08-16T08:24:35.160Z,69.04
2022-08-16T08:27:08.456Z,71.87
2022-08-16T08:29:40.376Z,72.22
2022-08-16T08:32:49.079Z,71.80
2022-08-16T08:35:03.400Z,69.69
2022-08-16T08:37:54.354Z,66.93
2022-08-16T08:40:28.565Z,64.46
2022-08-16T08:43:00.325Z,65.26
2022-08-16T08:45:47.810Z,65.90
2022-08-16T08:48:33.089Z,65.08
2022-08-16T08:51:03.545Z,64.37
2022-08-16T08:53:38.158Z,63.83
2022-08-16T08:56:22.850Z,65.02
2022-08-16T08:58:59.085Z,63.67
2022-08-16T09:01:36.951Z,65.22
2022-08-16T09:04:14.349Z,65.10
2022-08-16T09:06:43.757Z,65.03
2022-08-16T09:09:17.012Z,65.19
2022-08-16T09:11:49.618Z,65.43
2022-08-16T09:14:25.167Z,65.50
2022-08-16T09:17:01.626Z,65.37
2022-08-16T09:19:33.815Z,66.02
2022-08-16T09:22:02.013Z,65.09
2022-08-16T09:24:51.784Z,64.62
2022-08-16T09:27:25.190Z,62.84
2022-08-16T09:29:59.856Z,60.54
2022-08-16T09:32:30.915Z,60.83
2022-08-16T09:34:59.818Z,60.16
2022-08-16T09:37:29.871Z,59.86
2022-08-16T09:40:03.850Z,60.62
2022-08-16T09:42:56.120Z,59.52
2022-08-16T09:45:32.892Z,59.43
2022-08-16T09:48:04.313Z,59.48
2022-08-16T09:50:39.709Z,60.52
2022-08-16T09:53:15.174Z,60.52
2022-08-16T09:55:50.345Z,61.89
2022-08-16T09:58:40.634Z,61.76
2022-08-16T10:01:11.941Z,62.40
2022-08-16T10:04:02.385Z,61.86
2022-08-16T10:06:33.437Z,62.98
2022-08-16T10:09:05.758Z,63.55
2022-08-16T10:12:11.522Z,65.97
2022-08-16T10:14:46.512Z,66.57
2022-08-16T10:17:19.118Z,67.55
2022-08-16T10:19:47.275Z,67.55
2022-08-16T10:22:18.547Z,66.53
2022-08-16T10:24:56.132Z,68.01
2022-08-16T10:27:46.908Z,66.01
2022-08-16T10:30:26.259Z,65.88
2022-08-16T10:32:59.872Z,65.74
2022-08-16T10:35:32.970Z,63.45
2022-08-16T10:38:01.279Z,61.32
2022-08-16T10:40:30.654Z,60.79
2022-08-16T10:43:02.947Z,62.00
2022-08-16T10:45:37.119Z,62.18
2022-08-16T10:48:27.769Z,61.38
2022-08-16T10:50:58.253Z,60.88
2022-08-16T10:53:33.182Z,60.58
2022-08-16T10:56:02.697Z,60.86
2022-08-16T10:58:34.621Z,58.81
2022-08-16T11:03:54.084Z,59.50
2022-08-16T11:06:26.742Z,59.29
2022-08-16T11:14:38.005Z,62.53
2022-08-16T11:17:10.563Z,62.21
2022-08-16T11:22:42.318Z,62.36
2022-08-16T11:28:09.228Z,60.22
2022-08-16T11:30:40.886Z,58.65
2022-08-16T11:33:11.425Z,56.73
2022-08-16T11:36:22.324Z,54.30
2022-08-16T11:38:51.974Z,51.32
2022-08-16T11:41:24.945Z,51.78
2022-08-16T11:43:54.393Z,52.57
2022-08-16T11:46:45.242Z,52.61
2022-08-16T11:49:14.397Z,52.79
2022-08-16T11:51:44.089Z,53.44
2022-08-16T11:54:20.469Z,53.95
2022-08-16T11:56:52.476Z,53.89
2022-08-16T11:59:28.481Z,53.84
2022-08-16T12:02:04.354Z,51.83
2022-08-16T12:04:52.189Z,52.19
2022-08-16T12:07:24.410Z,52.44
2022-08-16T12:09:55.463Z,52.63
2022-08-16T12:12:28.447Z,52.15
2022-08-16T12:14:59.779Z,52.88
2022-08-16T12:17:32.409Z,53.06
2022-08-16T12:20:00.869Z,52.47
2022-08-16T12:22:29.123Z,52.28
2022-08-16T12:24:58.964Z,51.66
2022-08-16T12:27:29.387Z,51.39
2022-08-16T12:29:59.207Z,51.74
2022-08-16T12:32:39.344Z,52.78
2022-08-16T12:35:18.008Z,54.33
2022-08-16T12:37:49.584Z,57.10
2022-08-16T12:40:31.869Z,60.12
2022-08-16T12:43:01.953Z,61.96
2022-08-16T12:45:35.714Z,64.45
2022-08-16T12:48:33.654Z,65.62
2022-08-16T12:51:13.671Z,65.68
2022-08-16T12:53:48.458Z,64.61
2022-08-16T12:56:20.851Z,64.26
2022-08-16T12:58:52.194Z,62.67
2022-08-16T13:01:25.610Z,62.48
2022-08-16T13:04:21.264Z,63.35
2022-08-16T13:06:50.052Z,63.21
2022-08-16T13:09:28.932Z,63.93
2022-08-16T13:12:03.639Z,63.42
2022-08-16T13:14:37.137Z,62.56
2022-08-16T13:17:07.770Z,62.15
2022-08-16T13:20:03.844Z,63.41
2022-08-16T13:22:29.612Z,62.05
2022-08-16T13:24:59.296Z,60.74
2022-08-16T13:27:59.255Z,62.58
2022-08-16T13:30:36.455Z,63.69
2022-08-16T13:33:12.292Z,63.32
2022-08-16T13:35:42.960Z,63.81
2022-08-16T13:38:24.980Z,64.67
2022-08-16T13:40:57.317Z,64.50
2022-08-16T13:43:26.391Z,65.08
2022-08-16T13:45:55.618Z,65.76
2022-08-16T13:48:26.177Z,65.78
2022-08-16T13:51:07.484Z,65.77
2022-08-16T13:53:38.728Z,64.69
2022-08-16T13:56:08.989Z,64.88
2022-08-16T13:58:54.385Z,64.53
2022-08-16T14:01:23.981Z,63.45
2022-08-16T14:03:56.913Z,62.86
2022-08-16T14:06:26.344Z,63.30
2022-08-16T14:09:06.568Z,63.05
2022-08-16T14:11:35.247Z,62.37
2022-08-16T14:14:05.932Z,62.13
2022-08-16T14:16:35.214Z,62.59
2022-08-16T14:19:03.748Z,62.75
2022-08-16T14:21:35.334Z,63.00
2022-08-16T14:24:16.715Z,63.98
2022-08-16T14:26:54.008Z,64.13
2022-08-16T14:29:24.331Z,64.39
2022-08-16T14:32:00.853Z,64.95
2022-08-16T14:34:31.718Z,65.92
2022-08-16T14:36:59.787Z,65.94
2022-08-16T14:39:33.067Z,67.68
2022-08-16T14:42:08.807Z,67.99
2022-08-16T14:44:43.098Z,68.89
2022-08-16T14:47:11.574Z,69.19
2022-08-16T14:49:40.784Z,70.27
2022-08-16T14:52:13.400Z,71.41
2022-08-16T14:54:45.635Z,71.44
2022-08-16T14:57:18.448Z,70.09
2022-08-16T14:59:46.424Z,70.08
2022-08-16T15:02:34.129Z,69.39
2022-08-16T15:05:04.402Z,68.17
2022-08-16T15:07:35.455Z,69.09
2022-08-16T15:10:06.331Z,69.48
2022-08-16T15:12:37.700Z,69.43
2022-08-16T15:15:13.076Z,69.79
2022-08-16T15:17:56.647Z,69.39
2022-08-16T15:20:29.452Z,69.99
2022-08-16T15:23:04.494Z,69.77
2022-08-16T15:25:41.344Z,68.71
2022-08-16T15:28:30.748Z,68.91
2022-08-16T15:31:03.135Z,69.30
2022-08-16T15:33:42.150Z,69.13
2022-08-16T15:36:17.455Z,69.56
2022-08-16T15:39:02.571Z,70.66
2022-08-16T15:42:03.682Z,70.01
2022-08-16T15:44:44.662Z,70.74
2022-08-16T15:47:25.779Z,70.46
2022-08-16T15:49:58.005Z,69.38
2022-08-16T15:52:30.377Z,69.59
2022-08-16T15:55:13.155Z,69.19
2022-08-16T15:57:51.560Z,67.53
2022-08-16T16:00:23.057Z,65.75
2022-08-16T16:03:01.815Z,63.96
2022-08-16T16:05:34.186Z,64.72
2022-08-16T16:08:11.660Z,64.40
2022-08-16T16:10:39.930Z,63.00
2022-08-16T16:13:09.286Z,62.36
2022-08-16T16:15:41.543Z,61.86
2022-08-16T16:18:12.082Z,61.35
2022-08-16T16:20:43.960Z,62.56
2022-08-16T16:23:17.934Z,63.78
2022-08-16T16:25:48.916Z,62.49
2022-08-16T16:29:06.496Z,62.46
2022-08-16T16:31:18.134Z,62.22
2022-08-16T16:33:52.028Z,60.72
2022-08-16T16:36:29.421Z,61.28
2022-08-16T16:39:00.734Z,60.48
2022-08-16T16:41:30.398Z,60.65
2022-08-16T16:44:03.227Z,60.62
2022-08-16T16:46:40.348Z,60.29
2022-08-16T16:49:14.559Z,60.82
2022-08-16T16:51:49.923Z,60.42
2022-08-16T16:54:28.109Z,61.08
2022-08-16T16:56:59.166Z,60.84
2022-08-16T16:59:28.211Z,61.28
2022-08-16T17:02:38.135Z,61.32
2022-08-16T17:04:45.472Z,61.48
2022-08-16T17:07:15.170Z,61.32
2022-08-16T17:09:45.675Z,61.81
2022-08-16T17:12:24.936Z,61.92
2022-08-16T17:15:07.444Z,62.30
2022-08-16T17:17:59.775Z,62.60
2022-08-16T17:20:28.648Z,64.30
2022-08-16T17:23:01.024Z,65.92
2022-08-16T17:25:36.681Z,67.02
2022-08-16T17:28:59.056Z,68.28
2022-08-16T17:30:55.472Z,69.65
2022-08-16T17:33:28.164Z,70.71
2022-08-16T17:36:05.739Z,72.27
2022-08-16T17:38:45.899Z,72.96
2022-08-16T17:41:15.415Z,74.21
2022-08-16T17:43:47.866Z,75.52
2022-08-16T17:46:50.897Z,76.77
2022-08-16T17:49:09.649Z,77.45
2022-08-16T17:51:37.448Z,78.99
2022-08-16T17:54:06.802Z,79.17
2022-08-16T17:56:38.734Z,80.74
2022-08-16T17:59:06.570Z,81.33
2022-08-16T18:01:35.792Z,81.79
2022-08-16T18:04:08.790Z,81.72
2022-08-16T18:06:37.791Z,83.11
2022-08-16T18:09:07.731Z,84.12
2022-08-16T18:11:40.729Z,84.75
2022-08-16T18:14:10.763Z,85.27
2022-08-16T18:16:41.350Z,86.54
2022-08-16T18:19:09.859Z,87.06
2022-08-16T18:21:57.668Z,86.99
2022-08-16T18:24:27.852Z,87.68
2022-08-16T18:26:55.987Z,88.00
2022-08-16T18:29:23.948Z,88.62
2022-08-16T18:31:53.330Z,88.99
2022-08-16T18:34:23.429Z,88.73
2022-08-16T18:36:53.241Z,90.92
2022-08-16T18:39:21.167Z,90.64
2022-08-16T18:41:51.283Z,92.66
2022-08-16T18:44:26.668Z,92.96
2022-08-16T18:46:57.864Z,94.72
2022-08-16T18:49:25.912Z,94.73
2022-08-16T18:51:57.766Z,95.50
2022-08-16T18:54:26.381Z,96.16
2022-08-16T18:56:56.130Z,96.30
2022-08-16T18:59:29.814Z,97.70
2022-08-16T19:02:05.119Z,99.28
2022-08-16T19:04:47.446Z,99.12
2022-08-16T19:07:29.625Z,100.00
2022-08-16T19:10:04.439Z,99.39
2022-08-16T19:12:38.679Z,100.00
2022-08-16T19:15:16.611Z,100.00
2022-08-16T19:17:47.572Z,100.00
2022-08-16T19:20:21.478Z,100.00
2022-08-16T19:23:10.648Z,100.00
2022-08-16T19:25:49.467Z,100.00
2022-08-16T19:28:57.915Z,100.00
2022-08-16T19:31:16.125Z,100.00
2022-08-16T19:33:53.836Z,100.00
2022-08-16T19:36:32.064Z,100.00
2022-08-16T19:39:05.325Z,100.00
2022-08-16T19:41:38.396Z,100.00
2022-08-16T19:44:07.595Z,100.00
2022-08-16T19:46:35.957Z,100.00
2022-08-16T19:49:10.758Z,100.00
2022-08-16T19:51:44.294Z,100.00
2022-08-16T19:54:16.870Z,100.00
2022-08-16T19:56:45.429Z,100.00
2022-08-16T19:59:19.790Z,100.00
2022-08-16T20:01:52.830Z,100.00
2022-08-16T20:04:23.823Z,100.00
2022-08-16T20:06:53.031Z,100.00
2022-08-16T20:09:23.957Z,100.00
2022-08-16T20:11:53.202Z,100.00
2022-08-16T20:14:26.003Z,100.00
2022-08-16T20:16:58.526Z,100.00
2022-08-16T20:19:29.762Z,100.00
2022-08-16T20:22:09.091Z,100.00
2022-08-16T20:24:39.239Z,100.00
2022-08-16T20:27:11.530Z,100.00
2022-08-16T20:29:42.705Z,100.00
2022-08-16T20:32:16.301Z,100.00
2022-08-16T20:34:49.070Z,100.00
2022-08-16T20:37:19.143Z,100.00
2022-08-16T20:39:48.333Z,100.00
2022-08-16T20:42:21.540Z,100.00
2022-08-16T20:44:52.043Z,100.00
2022-08-16T20:47:20.218Z,100.00
2022-08-16T20:49:50.586Z,100.00
2022-08-16T20:52:20.228Z,100.00
2022-08-16T20:54:48.588Z,100.00
2022-08-16T20:57:17.617Z,100.00
2022-08-16T20:59:50.006Z,100.00
2022-08-16T21:02:25.608Z,100.00
2022-08-16T21:04:55.037Z,100.00
2022-08-16T21:07:25.391Z,100.00
2022-08-16T21:09:53.661Z,100.00
2022-08-16T21:12:21.499Z,100.00
2022-08-16T21:14:53.732Z,100.00
2022-08-16T21:17:23.635Z,100.00
2022-08-16T21:19:51.413Z,100.00
2022-08-16T21:22:24.046Z,100.00
2022-08-16T21:24:54.117Z,100.00
2022-08-16T21:27:24.479Z,100.00
2022-08-16T21:29:56.230Z,100.00
2022-08-16T21:32:35.804Z,100.00
2022-08-16T21:35:12.633Z,100.00
2022-08-16T21:37:42.380Z,100.00
2022-08-16T21:40:35.174Z,100.00
2022-08-16T21:43:08.445Z,100.00
2022-08-16T21:45:38.389Z,100.00
2022-08-16T21:48:07.833Z,100.00
2022-08-16T21:50:37.267Z,100.00
2022-08-16T21:53:13.310Z,100.00
2022-08-16T21:55:43.839Z,100.00
2022-08-16T21:58:16.673Z,100.00
2022-08-16T22:00:46.682Z,100.00
2022-08-16T22:03:16.713Z,100.00
2022-08-16T22:06:00.104Z,100.00
2022-08-16T22:08:46.828Z,100.00
2022-08-16T22:11:19.105Z,100.00
2022-08-16T22:13:51.184Z,100.00
2022-08-16T22:16:28.802Z,100.00
2022-08-16T22:18:58.927Z,100.00
2022-08-16T22:21:26.805Z,100.00
2022-08-16T22:23:58.930Z,100.00
2022-08-16T22:26:33.442Z,100.00
2022-08-16T22:29:02.008Z,100.00
2022-08-16T22:31:32.315Z,100.00
2022-08-16T22:34:01.928Z,100.00
2022-08-16T22:36:33.174Z,100.00
2022-08-16T22:39:10.629Z,100.00
2022-08-16T22:41:41.569Z,100.00
2022-08-16T22:44:12.821Z,100.00
2022-08-16T22:46:40.772Z,100.00
2022-08-16T22:49:11.269Z,100.00
2022-08-16T22:51:41.551Z,100.00
2022-08-16T22:54:42.554Z,100.00
2022-08-16T22:57:02.846Z,100.00
2022-08-16T22:59:31.997Z,100.00
2022-08-16T23:02:00.854Z,100.00
2022-08-16T23:04:32.772Z,100.00
2022-08-16T23:07:01.020Z,100.00
2022-08-16T23:09:33.304Z,100.00
2022-08-16T23:12:06.250Z,100.00
2022-08-16T23:14:36.232Z,100.00
2022-08-16T23:17:04.615Z,100.00
2022-08-16T23:19:32.538Z,100.00
2022-08-16T23:22:02.809Z,100.00
2022-08-16T23:24:36.970Z,100.00
2022-08-16T23:27:12.946Z,100.00
2022-08-16T23:29:40.780Z,100.00
2022-08-16T23:32:12.670Z,100.00
2022-08-16T23:34:42.797Z,100.00
2022-08-16T23:37:10.612Z,100.00
2022-08-16T23:39:43.644Z,100.00
2022-08-16T23:42:15.690Z,100.00
2022-08-16T23:45:06.897Z,100.00
2022-08-16T23:47:36.681Z,100.00
2022-08-16T23:50:05.026Z,100.00
2022-08-16T23:52:53.335Z,100.00
2022-08-16T23:55:26.491Z,100.00
2022-08-16T23:57:57.302Z,100.00
